Oxford, NC

10:36 AM EDT on June 03, 2015 (GMT -0400)
Henderson-Oxford | | Change Station
CLOSE
Current Station
Airport
Location: Oxford,
Elevation: 528 ft
Nearby Weather Stations

Elev 528 ft 36.36 °N, 78.53 °W | Updated 21 minutes ago

Fog
Fog
61 °F
Feels Like 61 °F
N
6
Wind Variable Wind from NNE

Today
High -- | Low -- °F
--% Chance of Precip.
Yesterday
High -- | Low -- °F
Precip. -- in
5:57 AM 8:27 PM
Full, 99% visible
Pressure 30.10 in
Visibility 1.8 miles
Clouds Overcast 400 ft
Dew Point 59 °F
Humidity 93%
Rainfall 0.37 in
Snow Depth Not available.
UV 2 out of 12
Pollen .80 out of 12
Air Quality Not available.
Flu Activity No Activity
METAR KHNZ 031415Z AUTO 02005KT 1 3/4SM BR OVC004 16/15 A3010 RMK AO2 T01630152

More Conditions Fewer Conditions

Pressure 30.10 in
Visibility 1.8 miles
Clouds Overcast 400 ft
Dew Point 59 °F
Humidity 93%
Rainfall 0.37 in
Snow Depth Not available.
UV 2 out of 12
Pollen .80 out of 12
Air Quality Not available.
Flu Activity No Activity
METAR KHNZ 031415Z AUTO 02005KT 1 3/4SM BR OVC004 16/15 A3010 RMK AO2 T01630152

More Conditions Fewer Conditions

10-Day Weather Forecast

×

Almanac

Astronomy

Jun. 03, 2015 Rise Set
Actual Time
Civil Twilight
Nautical Twilight
Astronomical Twilight
Moon
Length of Visible Light
Length of Day
Tomorrow will be .
, % of the Moon is Illuminated

Today's Extremes

State Highs State Lows

Community

WunderPhotos

Upload Photos

1,826,229 photos uploaded!

WunderBlogs® & News

Nearby

Air Quality

  Air Quality AQ Index Pollutant
Not available.

Snow Depth

Station Depth Elevation

Earthquake Activity

City Distance Mag. Time & Date
Minimum magnitude displayed is 2.5.

Coastal Water Temperatures

Place Temperature

Stations

Nearby Weather Stations

Station Location Temp. Windchill Dew Point Humidity Wind Precip. Elev Updated Type